sensor_id;sensor_type;location;lat;lon;timestamp;pressure;altitude;pressure_sealevel;temperature;humidity
73516;BME280;61763;51.416;5.442;2023-09-19T00:01:07;100722.88;;;13.86;100.00
73516;BME280;61763;51.416;5.442;2023-09-19T00:03:34;100720.06;;;13.88;100.00
73516;BME280;61763;51.416;5.442;2023-09-19T00:06:02;100725.59;;;13.86;100.00
73516;BME280;61763;51.416;5.442;2023-09-19T00:08:28;100726.44;;;13.87;100.00
73516;BME280;61763;51.416;5.442;2023-09-19T00:10:54;100725.78;;;13.83;100.00
73516;BME280;61763;51.416;5.442;2023-09-19T00:13:20;100738.41;;;13.70;100.00
73516;BME280;61763;51.416;5.442;2023-09-19T00:15:48;100733.53;;;13.75;100.00
73516;BME280;61763;51.416;5.442;2023-09-19T00:18:14;100731.03;;;13.72;100.00
73516;BME280;61763;51.416;5.442;2023-09-19T00:20:41;100741.44;;;13.65;100.00
73516;BME280;61763;51.416;5.442;2023-09-19T00:23:07;100739.03;;;13.60;100.00
73516;BME280;61763;51.416;5.442;2023-09-19T00:25:36;100745.50;;;13.58;100.00
73516;BME280;61763;51.416;5.442;2023-09-19T00:28:03;100742.22;;;13.53;100.00
73516;BME280;61763;51.416;5.442;2023-09-19T00:30:29;100741.34;;;13.52;100.00
73516;BME280;61763;51.416;5.442;2023-09-19T00:32:54;100736.13;;;13.49;100.00
73516;BME280;61763;51.416;5.442;2023-09-19T00:35:22;100755.41;;;13.44;100.00
73516;BME280;61763;51.416;5.442;2023-09-19T00:37:51;100764.59;;;13.42;100.00
73516;BME280;61763;51.416;5.442;2023-09-19T00:40:17;100761.59;;;13.46;100.00
73516;BME280;61763;51.416;5.442;2023-09-19T00:42:43;100758.47;;;13.53;100.00
73516;BME280;61763;51.416;5.442;2023-09-19T00:45:10;100762.44;;;13.47;100.00
73516;BME280;61763;51.416;5.442;2023-09-19T00:47:36;100763.84;;;13.40;100.00
73516;BME280;61763;51.416;5.442;2023-09-19T00:50:04;100765.50;;;13.26;100.00
73516;BME280;61763;51.416;5.442;2023-09-19T00:52:33;100760.78;;;13.30;100.00
73516;BME280;61763;51.416;5.442;2023-09-19T00:54:58;100767.41;;;13.40;100.00
73516;BME280;61763;51.416;5.442;2023-09-19T00:57:25;100778.34;;;13.39;100.00
73516;BME280;61763;51.416;5.442;2023-09-19T00:59:54;100780.34;;;13.35;100.00
73516;BME280;61763;51.416;5.442;2023-09-19T01:02:21;100787.88;;;13.30;100.00
73516;BME280;61763;51.416;5.442;2023-09-19T01:04:46;100782.88;;;13.38;100.00
73516;BME280;61763;51.416;5.442;2023-09-19T01:07:12;100782.50;;;13.44;100.00
73516;BME280;61763;51.416;5.442;2023-09-19T01:09:39;100788.69;;;13.46;100.00
73516;BME280;61763;51.416;5.442;2023-09-19T01:12:06;100797.13;;;13.42;100.00
73516;BME280;61763;51.416;5.442;2023-09-19T01:14:42;100805.25;;;13.42;100.00
73516;BME280;61763;51.416;5.442;2023-09-19T01:17:29;100799.22;;;13.37;100.00
73516;BME280;61763;51.416;5.442;2023-09-19T01:30:57;100813.06;;;13.18;100.00
73516;BME280;61763;51.416;5.442;2023-09-19T01:33:25;100810.25;;;13.19;100.00
73516;BME280;61763;51.416;5.442;2023-09-19T01:35:51;100812.44;;;13.12;100.00
73516;BME280;61763;51.416;5.442;2023-09-19T01:38:18;100813.31;;;13.13;100.00
73516;BME280;61763;51.416;5.442;2023-09-19T01:41:07;100813.81;;;13.20;100.00
73516;BME280;61763;51.416;5.442;2023-09-19T01:43:42;100821.09;;;13.19;100.00
73516;BME280;61763;51.416;5.442;2023-09-19T01:46:22;100822.91;;;13.19;100.00
73516;BME280;61763;51.416;5.442;2023-09-19T01:54:04;100820.78;;;13.09;100.00
73516;BME280;61763;51.416;5.442;2023-09-19T01:56:48;100815.75;;;13.18;100.00
73516;BME280;61763;51.416;5.442;2023-09-19T01:59:24;100806.84;;;13.15;100.00
73516;BME280;61763;51.416;5.442;2023-09-19T02:01:53;100817.88;;;13.12;100.00
73516;BME280;61763;51.416;5.442;2023-09-19T02:04:20;100813.03;;;13.03;100.00
73516;BME280;61763;51.416;5.442;2023-09-19T02:06:46;100811.94;;;13.06;100.00
73516;BME280;61763;51.416;5.442;2023-09-19T02:09:13;100819.13;;;13.07;100.00
73516;BME280;61763;51.416;5.442;2023-09-19T02:11:40;100809.44;;;13.03;100.00
73516;BME280;61763;51.416;5.442;2023-09-19T02:14:06;100811.56;;;12.97;100.00
73516;BME280;61763;51.416;5.442;2023-09-19T02:16:33;100814.66;;;12.91;100.00
73516;BME280;61763;51.416;5.442;2023-09-19T02:18:59;100811.94;;;12.91;100.00
73516;BME280;61763;51.416;5.442;2023-09-19T02:21:25;100823.63;;;12.92;100.00
73516;BME280;61763;51.416;5.442;2023-09-19T02:23:54;100817.84;;;12.98;100.00
73516;BME280;61763;51.416;5.442;2023-09-19T02:26:20;100803.63;;;12.94;100.00
73516;BME280;61763;51.416;5.442;2023-09-19T02:28:46;100811.41;;;12.85;100.00
73516;BME280;61763;51.416;5.442;2023-09-19T02:31:12;100816.56;;;12.89;100.00
73516;BME280;61763;51.416;5.442;2023-09-19T02:33:37;100822.44;;;12.82;100.00
73516;BME280;61763;51.416;5.442;2023-09-19T02:36:04;100819.75;;;12.82;100.00
73516;BME280;61763;51.416;5.442;2023-09-19T02:38:29;100816.94;;;12.83;100.00
73516;BME280;61763;51.416;5.442;2023-09-19T02:40:55;100823.69;;;12.76;100.00
73516;BME280;61763;51.416;5.442;2023-09-19T02:43:21;100830.50;;;12.67;100.00
73516;BME280;61763;51.416;5.442;2023-09-19T02:45:48;100826.44;;;12.60;100.00
73516;BME280;61763;51.416;5.442;2023-09-19T02:48:18;100825.47;;;12.61;100.00
73516;BME280;61763;51.416;5.442;2023-09-19T02:50:43;100817.19;;;12.48;100.00
73516;BME280;61763;51.416;5.442;2023-09-19T02:53:10;100824.44;;;12.48;100.00
73516;BME280;61763;51.416;5.442;2023-09-19T02:55:44;100823.22;;;12.53;100.00
73516;BME280;61763;51.416;5.442;2023-09-19T02:58:09;100832.38;;;12.51;100.00
73516;BME280;61763;51.416;5.442;2023-09-19T03:00:37;100831.44;;;12.52;100.00
73516;BME280;61763;51.416;5.442;2023-09-19T03:03:03;100836.94;;;12.50;100.00
73516;BME280;61763;51.416;5.442;2023-09-19T03:05:28;100838.56;;;12.53;100.00
73516;BME280;61763;51.416;5.442;2023-09-19T03:07:58;100830.63;;;12.50;100.00
73516;BME280;61763;51.416;5.442;2023-09-19T03:10:26;100832.13;;;12.55;100.00
73516;BME280;61763;51.416;5.442;2023-09-19T03:12:53;100841.28;;;12.53;100.00
73516;BME280;61763;51.416;5.442;2023-09-19T03:15:19;100841.13;;;12.56;100.00
73516;BME280;61763;51.416;5.442;2023-09-19T03:17:45;100836.47;;;12.58;100.00
73516;BME280;61763;51.416;5.442;2023-09-19T03:20:11;100827.94;;;12.50;100.00
73516;BME280;61763;51.416;5.442;2023-09-19T03:22:38;100832.56;;;12.48;100.00
73516;BME280;61763;51.416;5.442;2023-09-19T03:25:05;100826.78;;;12.54;100.00
73516;BME280;61763;51.416;5.442;2023-09-19T03:27:34;100834.16;;;12.52;100.00
73516;BME280;61763;51.416;5.442;2023-09-19T03:30:00;100837.22;;;12.46;100.00
73516;BME280;61763;51.416;5.442;2023-09-19T03:32:25;100833.63;;;12.45;100.00
73516;BME280;61763;51.416;5.442;2023-09-19T03:34:50;100841.56;;;12.48;100.00
73516;BME280;61763;51.416;5.442;2023-09-19T03:37:16;100839.75;;;12.49;100.00
73516;BME280;61763;51.416;5.442;2023-09-19T03:39:42;100840.25;;;12.39;100.00
73516;BME280;61763;51.416;5.442;2023-09-19T03:42:08;100837.13;;;12.31;100.00
73516;BME280;61763;51.416;5.442;2023-09-19T03:44:33;100839.03;;;12.29;100.00
73516;BME280;61763;51.416;5.442;2023-09-19T03:46:59;100834.94;;;12.38;100.00
73516;BME280;61763;51.416;5.442;2023-09-19T03:49:24;100830.59;;;12.35;100.00
73516;BME280;61763;51.416;5.442;2023-09-19T03:51:50;100831.94;;;12.42;100.00
73516;BME280;61763;51.416;5.442;2023-09-19T03:54:15;100829.19;;;12.44;100.00
73516;BME280;61763;51.416;5.442;2023-09-19T03:56:42;100826.53;;;12.42;100.00
73516;BME280;61763;51.416;5.442;2023-09-19T03:59:08;100832.56;;;12.48;100.00
73516;BME280;61763;51.416;5.442;2023-09-19T04:01:34;100831.91;;;12.44;100.00
73516;BME280;61763;51.416;5.442;2023-09-19T04:04:00;100825.59;;;12.43;100.00
73516;BME280;61763;51.416;5.442;2023-09-19T04:06:33;100828.38;;;12.42;100.00
73516;BME280;61763;51.416;5.442;2023-09-19T04:09:00;100820.09;;;12.45;100.00
73516;BME280;61763;51.416;5.442;2023-09-19T04:11:26;100830.44;;;12.53;100.00
73516;BME280;61763;51.416;5.442;2023-09-19T04:13:51;100829.41;;;12.55;100.00
73516;BME280;61763;51.416;5.442;2023-09-19T04:16:17;100823.13;;;12.55;100.00
73516;BME280;61763;51.416;5.442;2023-09-19T04:18:43;100822.59;;;12.48;100.00
73516;BME280;61763;51.416;5.442;2023-09-19T04:21:08;100826.22;;;12.49;100.00
73516;BME280;61763;51.416;5.442;2023-09-19T04:23:33;100825.13;;;12.51;100.00
73516;BME280;61763;51.416;5.442;2023-09-19T04:25:59;100835.72;;;12.56;100.00
73516;BME280;61763;51.416;5.442;2023-09-19T04:28:25;100833.03;;;12.70;100.00
73516;BME280;61763;51.416;5.442;2023-09-19T04:30:50;100839.78;;;12.63;100.00
73516;BME280;61763;51.416;5.442;2023-09-19T04:33:15;100848.09;;;12.60;100.00
73516;BME280;61763;51.416;5.442;2023-09-19T04:35:41;100853.22;;;12.65;100.00
73516;BME280;61763;51.416;5.442;2023-09-19T04:38:08;100857.50;;;12.69;100.00
73516;BME280;61763;51.416;5.442;2023-09-19T04:40:33;100868.31;;;12.69;100.00
73516;BME280;61763;51.416;5.442;2023-09-19T04:42:59;100872.50;;;12.74;100.00
73516;BME280;61763;51.416;5.442;2023-09-19T04:45:26;100883.16;;;12.77;100.00
73516;BME280;61763;51.416;5.442;2023-09-19T04:47:52;100886.78;;;12.92;100.00
73516;BME280;61763;51.416;5.442;2023-09-19T04:50:18;100879.47;;;12.94;100.00
73516;BME280;61763;51.416;5.442;2023-09-19T04:52:44;100883.47;;;13.03;100.00
73516;BME280;61763;51.416;5.442;2023-09-19T04:55:14;100890.50;;;13.06;100.00
73516;BME280;61763;51.416;5.442;2023-09-19T04:57:48;100883.56;;;13.16;100.00
73516;BME280;61763;51.416;5.442;2023-09-19T05:00:15;100894.25;;;13.19;100.00
73516;BME280;61763;51.416;5.442;2023-09-19T05:02:43;100896.50;;;13.27;100.00
73516;BME280;61763;51.416;5.442;2023-09-19T05:05:09;100901.72;;;13.30;100.00
73516;BME280;61763;51.416;5.442;2023-09-19T05:07:44;100907.13;;;13.30;100.00
73516;BME280;61763;51.416;5.442;2023-09-19T05:10:10;100901.81;;;13.28;100.00
73516;BME280;61763;51.416;5.442;2023-09-19T05:12:37;100904.81;;;13.24;100.00
73516;BME280;61763;51.416;5.442;2023-09-19T05:15:03;100907.28;;;13.12;100.00
73516;BME280;61763;51.416;5.442;2023-09-19T05:17:29;100902.63;;;13.00;100.00
73516;BME280;61763;51.416;5.442;2023-09-19T05:19:54;100904.72;;;12.95;100.00
73516;BME280;61763;51.416;5.442;2023-09-19T05:22:20;100905.41;;;12.99;100.00
73516;BME280;61763;51.416;5.442;2023-09-19T05:24:45;100906.19;;;13.01;100.00
73516;BME280;61763;51.416;5.442;2023-09-19T05:27:13;100918.16;;;12.96;100.00
73516;BME280;61763;51.416;5.442;2023-09-19T05:29:38;100911.88;;;12.96;100.00
73516;BME280;61763;51.416;5.442;2023-09-19T05:32:06;100917.31;;;12.96;100.00
73516;BME280;61763;51.416;5.442;2023-09-19T05:34:36;100910.94;;;12.97;100.00
73516;BME280;61763;51.416;5.442;2023-09-19T05:37:01;100919.06;;;12.97;100.00
73516;BME280;61763;51.416;5.442;2023-09-19T05:39:27;100919.31;;;12.92;100.00
73516;BME280;61763;51.416;5.442;2023-09-19T05:41:52;100913.44;;;13.00;100.00
73516;BME280;61763;51.416;5.442;2023-09-19T05:44:18;100922.44;;;13.01;100.00
73516;BME280;61763;51.416;5.442;2023-09-19T05:46:43;100916.94;;;13.02;100.00
73516;BME280;61763;51.416;5.442;2023-09-19T05:49:10;100917.22;;;12.97;100.00
73516;BME280;61763;51.416;5.442;2023-09-19T05:51:36;100925.44;;;12.96;100.00
73516;BME280;61763;51.416;5.442;2023-09-19T05:54:01;100920.00;;;12.96;100.00
73516;BME280;61763;51.416;5.442;2023-09-19T05:56:27;100917.38;;;12.94;100.00
73516;BME280;61763;51.416;5.442;2023-09-19T05:58:52;100902.28;;;12.90;100.00
73516;BME280;61763;51.416;5.442;2023-09-19T06:01:18;100911.50;;;13.02;100.00
73516;BME280;61763;51.416;5.442;2023-09-19T06:03:44;100913.25;;;13.03;100.00
73516;BME280;61763;51.416;5.442;2023-09-19T06:06:09;100913.34;;;13.02;100.00
73516;BME280;61763;51.416;5.442;2023-09-19T06:08:35;100913.25;;;13.03;100.00
73516;BME280;61763;51.416;5.442;2023-09-19T06:11:00;100909.91;;;13.14;100.00
73516;BME280;61763;51.416;5.442;2023-09-19T06:13:28;100914.00;;;13.21;100.00
73516;BME280;61763;51.416;5.442;2023-09-19T06:15:57;100918.47;;;13.22;100.00
73516;BME280;61763;51.416;5.442;2023-09-19T06:18:25;100914.31;;;13.31;100.00
73516;BME280;61763;51.416;5.442;2023-09-19T06:20:52;100928.47;;;13.36;100.00
73516;BME280;61763;51.416;5.442;2023-09-19T06:23:20;100927.25;;;13.42;100.00
73516;BME280;61763;51.416;5.442;2023-09-19T06:25:46;100925.56;;;13.39;100.00
73516;BME280;61763;51.416;5.442;2023-09-19T06:28:11;100926.09;;;13.46;100.00
73516;BME280;61763;51.416;5.442;2023-09-19T06:30:42;100931.31;;;13.49;100.00
73516;BME280;61763;51.416;5.442;2023-09-19T06:33:09;100935.59;;;13.53;100.00
73516;BME280;61763;51.416;5.442;2023-09-19T06:35:36;100926.03;;;13.62;100.00
73516;BME280;61763;51.416;5.442;2023-09-19T06:38:03;100938.78;;;13.60;100.00
73516;BME280;61763;51.416;5.442;2023-09-19T06:40:30;100944.00;;;13.63;100.00
73516;BME280;61763;51.416;5.442;2023-09-19T06:42:56;100947.03;;;13.73;100.00
73516;BME280;61763;51.416;5.442;2023-09-19T06:45:22;100948.59;;;13.77;100.00
73516;BME280;61763;51.416;5.442;2023-09-19T06:47:50;100948.22;;;13.83;100.00
73516;BME280;61763;51.416;5.442;2023-09-19T06:50:20;100953.53;;;13.84;100.00
73516;BME280;61763;51.416;5.442;2023-09-19T06:52:48;100952.09;;;13.93;100.00
73516;BME280;61763;51.416;5.442;2023-09-19T06:55:18;100954.03;;;14.06;100.00
73516;BME280;61763;51.416;5.442;2023-09-19T06:57:45;100948.41;;;14.09;100.00
73516;BME280;61763;51.416;5.442;2023-09-19T07:00:12;100954.31;;;14.15;100.00
73516;BME280;61763;51.416;5.442;2023-09-19T07:06:06;100956.06;;;14.16;100.00
73516;BME280;61763;51.416;5.442;2023-09-19T07:08:34;100954.41;;;14.28;100.00
73516;BME280;61763;51.416;5.442;2023-09-19T07:10:59;100952.66;;;14.27;100.00
73516;BME280;61763;51.416;5.442;2023-09-19T07:13:25;100948.50;;;14.36;100.00
73516;BME280;61763;51.416;5.442;2023-09-19T07:15:50;100944.59;;;14.40;100.00
73516;BME280;61763;51.416;5.442;2023-09-19T07:18:17;100947.88;;;14.45;100.00
73516;BME280;61763;51.416;5.442;2023-09-19T07:20:44;100942.16;;;14.50;100.00
73516;BME280;61763;51.416;5.442;2023-09-19T07:23:16;100955.84;;;14.63;100.00
73516;BME280;61763;51.416;5.442;2023-09-19T07:25:43;100958.13;;;14.69;100.00
73516;BME280;61763;51.416;5.442;2023-09-19T07:28:09;100952.66;;;14.83;100.00
73516;BME280;61763;51.416;5.442;2023-09-19T07:30:37;100951.59;;;14.86;100.00
73516;BME280;61763;51.416;5.442;2023-09-19T07:33:04;100957.34;;;14.81;100.00
73516;BME280;61763;51.416;5.442;2023-09-19T07:35:30;100957.59;;;14.91;100.00
73516;BME280;61763;51.416;5.442;2023-09-19T07:37:56;100953.28;;;15.01;100.00
73516;BME280;61763;51.416;5.442;2023-09-19T07:40:23;100950.06;;;15.09;100.00
73516;BME280;61763;51.416;5.442;2023-09-19T07:42:49;100944.63;;;15.09;100.00
73516;BME280;61763;51.416;5.442;2023-09-19T07:45:15;100940.59;;;15.15;100.00
73516;BME280;61763;51.416;5.442;2023-09-19T07:47:49;100943.47;;;15.26;100.00
73516;BME280;61763;51.416;5.442;2023-09-19T07:50:18;100947.81;;;15.29;100.00
73516;BME280;61763;51.416;5.442;2023-09-19T07:52:45;100948.03;;;15.26;100.00
73516;BME280;61763;51.416;5.442;2023-09-19T07:55:11;100956.19;;;15.38;100.00
73516;BME280;61763;51.416;5.442;2023-09-19T07:57:37;100951.69;;;15.52;100.00
73516;BME280;61763;51.416;5.442;2023-09-19T08:00:04;100951.88;;;15.62;100.00
73516;BME280;61763;51.416;5.442;2023-09-19T08:02:38;100953.16;;;15.83;100.00
73516;BME280;61763;51.416;5.442;2023-09-19T08:05:14;100957.47;;;15.99;100.00
73516;BME280;61763;51.416;5.442;2023-09-19T08:07:44;100954.66;;;16.13;100.00
73516;BME280;61763;51.416;5.442;2023-09-19T08:10:11;100945.97;;;16.08;100.00
73516;BME280;61763;51.416;5.442;2023-09-19T08:12:39;100945.50;;;16.01;100.00
73516;BME280;61763;51.416;5.442;2023-09-19T08:15:18;100958.16;;;16.15;100.00
73516;BME280;61763;51.416;5.442;2023-09-19T08:17:47;100954.63;;;16.26;100.00
73516;BME280;61763;51.416;5.442;2023-09-19T08:20:13;100947.31;;;16.26;100.00
73516;BME280;61763;51.416;5.442;2023-09-19T08:22:53;100955.16;;;16.31;100.00
73516;BME280;61763;51.416;5.442;2023-09-19T08:25:22;100958.22;;;16.26;100.00
73516;BME280;61763;51.416;5.442;2023-09-19T08:27:49;100955.16;;;16.31;100.00
73516;BME280;61763;51.416;5.442;2023-09-19T08:30:20;100954.16;;;16.45;100.00
73516;BME280;61763;51.416;5.442;2023-09-19T08:32:56;100948.56;;;16.59;100.00
73516;BME280;61763;51.416;5.442;2023-09-19T08:35:23;100948.34;;;16.62;100.00
73516;BME280;61763;51.416;5.442;2023-09-19T08:37:48;100951.66;;;16.92;100.00
73516;BME280;61763;51.416;5.442;2023-09-19T08:40:14;100953.91;;;16.85;100.00
73516;BME280;61763;51.416;5.442;2023-09-19T08:42:55;100954.53;;;17.02;100.00
73516;BME280;61763;51.416;5.442;2023-09-19T08:45:22;100958.31;;;16.88;100.00
73516;BME280;61763;51.416;5.442;2023-09-19T08:50:47;100956.75;;;16.84;100.00
73516;BME280;61763;51.416;5.442;2023-09-19T08:53:21;100959.59;;;16.58;100.00
73516;BME280;61763;51.416;5.442;2023-09-19T08:55:52;100962.63;;;16.53;100.00
73516;BME280;61763;51.416;5.442;2023-09-19T08:58:25;100960.84;;;16.65;100.00
73516;BME280;61763;51.416;5.442;2023-09-19T09:00:54;100961.31;;;16.59;100.00
73516;BME280;61763;51.416;5.442;2023-09-19T09:03:21;100946.72;;;16.84;100.00
73516;BME280;61763;51.416;5.442;2023-09-19T09:05:50;100953.25;;;16.94;100.00
73516;BME280;61763;51.416;5.442;2023-09-19T09:08:16;100949.63;;;17.18;100.00
73516;BME280;61763;51.416;5.442;2023-09-19T09:10:44;100952.91;;;17.23;100.00
73516;BME280;61763;51.416;5.442;2023-09-19T09:13:10;100946.59;;;17.34;100.00
73516;BME280;61763;51.416;5.442;2023-09-19T09:15:40;100946.16;;;17.51;100.00
73516;BME280;61763;51.416;5.442;2023-09-19T09:18:06;100954.38;;;17.63;100.00
73516;BME280;61763;51.416;5.442;2023-09-19T09:20:32;100938.38;;;17.69;100.00
73516;BME280;61763;51.416;5.442;2023-09-19T09:22:57;100941.13;;;17.81;100.00
73516;BME280;61763;51.416;5.442;2023-09-19T09:25:51;100940.66;;;17.87;100.00
73516;BME280;61763;51.416;5.442;2023-09-19T09:28:25;100948.16;;;18.19;100.00
73516;BME280;61763;51.416;5.442;2023-09-19T09:30:53;100947.66;;;18.14;100.00
73516;BME280;61763;51.416;5.442;2023-09-19T09:33:20;100948.66;;;18.24;100.00
73516;BME280;61763;51.416;5.442;2023-09-19T09:35:58;100956.97;;;18.34;100.00
73516;BME280;61763;51.416;5.442;2023-09-19T09:38:30;100956.72;;;18.14;100.00
73516;BME280;61763;51.416;5.442;2023-09-19T09:41:08;100951.13;;;18.16;100.00
73516;BME280;61763;51.416;5.442;2023-09-19T09:43:39;100944.81;;;18.15;100.00
73516;BME280;61763;51.416;5.442;2023-09-19T09:46:19;100950.25;;;18.04;100.00
73516;BME280;61763;51.416;5.442;2023-09-19T09:48:56;100950.25;;;18.38;100.00
73516;BME280;61763;51.416;5.442;2023-09-19T09:51:41;100945.00;;;18.69;100.00
73516;BME280;61763;51.416;5.442;2023-09-19T09:54:13;100934.06;;;18.58;100.00
73516;BME280;61763;51.416;5.442;2023-09-19T09:56:56;100928.88;;;18.54;100.00
73516;BME280;61763;51.416;5.442;2023-09-19T09:59:47;100944.66;;;18.51;100.00
73516;BME280;61763;51.416;5.442;2023-09-19T10:02:14;100938.31;;;18.50;100.00
73516;BME280;61763;51.416;5.442;2023-09-19T10:04:45;100934.25;;;18.45;100.00
73516;BME280;61763;51.416;5.442;2023-09-19T10:07:28;100944.91;;;18.36;100.00
73516;BME280;61763;51.416;5.442;2023-09-19T10:09:58;100943.41;;;18.21;100.00
73516;BME280;61763;51.416;5.442;2023-09-19T10:12:31;100938.81;;;17.99;100.00
73516;BME280;61763;51.416;5.442;2023-09-19T10:14:59;100933.63;;;18.18;100.00
73516;BME280;61763;51.416;5.442;2023-09-19T10:17:25;100934.03;;;18.14;100.00
73516;BME280;61763;51.416;5.442;2023-09-19T10:19:56;100924.91;;;18.47;100.00
73516;BME280;61763;51.416;5.442;2023-09-19T10:22:26;100919.19;;;18.50;100.00
73516;BME280;61763;51.416;5.442;2023-09-19T10:24:53;100920.00;;;18.73;100.00
73516;BME280;61763;51.416;5.442;2023-09-19T10:27:22;100928.31;;;18.83;100.00
73516;BME280;61763;51.416;5.442;2023-09-19T10:29:52;100921.63;;;18.76;100.00
73516;BME280;61763;51.416;5.442;2023-09-19T10:32:22;100923.97;;;18.81;100.00
73516;BME280;61763;51.416;5.442;2023-09-19T10:34:49;100921.16;;;18.60;100.00
73516;BME280;61763;51.416;5.442;2023-09-19T10:37:16;100928.34;;;18.72;100.00
73516;BME280;61763;51.416;5.442;2023-09-19T10:39:46;100912.78;;;18.95;100.00
73516;BME280;61763;51.416;5.442;2023-09-19T10:42:14;100910.06;;;19.16;100.00
73516;BME280;61763;51.416;5.442;2023-09-19T10:44:42;100919.78;;;19.09;100.00
73516;BME280;61763;51.416;5.442;2023-09-19T10:47:10;100917.34;;;19.27;100.00
73516;BME280;61763;51.416;5.442;2023-09-19T10:49:43;100916.16;;;19.41;100.00
73516;BME280;61763;51.416;5.442;2023-09-19T10:52:13;100914.66;;;19.58;100.00
73516;BME280;61763;51.416;5.442;2023-09-19T10:54:46;100918.31;;;19.80;100.00
73516;BME280;61763;51.416;5.442;2023-09-19T10:57:25;100927.50;;;19.57;100.00
73516;BME280;61763;51.416;5.442;2023-09-19T11:00:08;100917.22;;;19.71;100.00
73516;BME280;61763;51.416;5.442;2023-09-19T11:06:16;100909.41;;;20.18;100.00
73516;BME280;61763;51.416;5.442;2023-09-19T11:09:04;100904.06;;;19.86;100.00
73516;BME280;61763;51.416;5.442;2023-09-19T11:11:55;100897.72;;;19.85;100.00
73516;BME280;61763;51.416;5.442;2023-09-19T11:30:44;100881.06;;;19.98;100.00
73516;BME280;61763;51.416;5.442;2023-09-19T11:43:45;100850.75;;;20.40;100.00
73516;BME280;61763;51.416;5.442;2023-09-19T11:46:11;100830.88;;;20.48;100.00
73516;BME280;61763;51.416;5.442;2023-09-19T11:48:38;100840.84;;;20.59;100.00
73516;BME280;61763;51.416;5.442;2023-09-19T11:51:22;100844.84;;;20.45;100.00
73516;BME280;61763;51.416;5.442;2023-09-19T11:53:55;100847.34;;;20.48;100.00
73516;BME280;61763;51.416;5.442;2023-09-19T11:56:23;100847.19;;;20.50;100.00
73516;BME280;61763;51.416;5.442;2023-09-19T11:58:54;100840.41;;;20.63;100.00
73516;BME280;61763;51.416;5.442;2023-09-19T12:01:24;100831.91;;;20.57;100.00
73516;BME280;61763;51.416;5.442;2023-09-19T12:03:54;100837.28;;;20.78;100.00
73516;BME280;61763;51.416;5.442;2023-09-19T12:06:20;100835.69;;;21.05;100.00
73516;BME280;61763;51.416;5.442;2023-09-19T12:08:47;100829.28;;;20.45;100.00
73516;BME280;61763;51.416;5.442;2023-09-19T12:11:14;100825.53;;;20.37;100.00
73516;BME280;61763;51.416;5.442;2023-09-19T12:13:47;100830.81;;;20.19;100.00
73516;BME280;61763;51.416;5.442;2023-09-19T12:18:40;100840.84;;;20.59;100.00
73516;BME280;61763;51.416;5.442;2023-09-19T12:21:08;100832.75;;;20.47;100.00
73516;BME280;61763;51.416;5.442;2023-09-19T12:24:14;100837.09;;;20.50;100.00
73516;BME280;61763;51.416;5.442;2023-09-19T12:26:45;100842.72;;;20.58;100.00
73516;BME280;61763;51.416;5.442;2023-09-19T12:29:20;100838.88;;;20.71;100.00
73516;BME280;61763;51.416;5.442;2023-09-19T12:34:25;100838.66;;;20.62;100.00
73516;BME280;61763;51.416;5.442;2023-09-19T12:40:08;100841.66;;;20.20;100.00
73516;BME280;61763;51.416;5.442;2023-09-19T12:42:43;100837.53;;;20.05;100.00
73516;BME280;61763;51.416;5.442;2023-09-19T12:45:09;100866.63;;;19.96;100.00
73516;BME280;61763;51.416;5.442;2023-09-19T12:47:35;100864.31;;;19.91;100.00
73516;BME280;61763;51.416;5.442;2023-09-19T12:50:11;100851.19;;;19.85;100.00
73516;BME280;61763;51.416;5.442;2023-09-19T12:52:46;100849.78;;;20.01;100.00
73516;BME280;61763;51.416;5.442;2023-09-19T12:55:22;100846.81;;;20.13;100.00
73516;BME280;61763;51.416;5.442;2023-09-19T13:00:37;100836.97;;;20.11;100.00
73516;BME280;61763;51.416;5.442;2023-09-19T13:05:53;100821.72;;;20.18;100.00
73516;BME280;61763;51.416;5.442;2023-09-19T13:08:23;100835.59;;;20.26;100.00
73516;BME280;61763;51.416;5.442;2023-09-19T13:16:06;100842.63;;;20.19;100.00
73516;BME280;61763;51.416;5.442;2023-09-19T13:18:48;100845.31;;;20.00;100.00
73516;BME280;61763;51.416;5.442;2023-09-19T13:21:16;100846.00;;;19.92;100.00
73516;BME280;61763;51.416;5.442;2023-09-19T13:23:56;100848.44;;;19.85;100.00
73516;BME280;61763;51.416;5.442;2023-09-19T13:26:27;100841.81;;;19.88;100.00
73516;BME280;61763;51.416;5.442;2023-09-19T13:28:55;100844.38;;;19.80;100.00
73516;BME280;61763;51.416;5.442;2023-09-19T13:31:20;100852.13;;;19.74;100.00
73516;BME280;61763;51.416;5.442;2023-09-19T13:33:47;100850.38;;;19.73;100.00
73516;BME280;61763;51.416;5.442;2023-09-19T13:36:13;100855.97;;;19.93;100.00
73516;BME280;61763;51.416;5.442;2023-09-19T13:38:42;100852.94;;;19.96;100.00
73516;BME280;61763;51.416;5.442;2023-09-19T13:41:14;100840.56;;;19.71;100.00
73516;BME280;61763;51.416;5.442;2023-09-19T13:43:39;100849.00;;;19.79;100.00
73516;BME280;61763;51.416;5.442;2023-09-19T13:46:05;100833.94;;;19.73;100.00
73516;BME280;61763;51.416;5.442;2023-09-19T13:48:33;100847.78;;;19.72;100.00
73516;BME280;61763;51.416;5.442;2023-09-19T13:51:02;100851.41;;;19.51;100.00
73516;BME280;61763;51.416;5.442;2023-09-19T13:53:27;100840.38;;;19.63;100.00
73516;BME280;61763;51.416;5.442;2023-09-19T13:55:53;100858.75;;;19.51;100.00
73516;BME280;61763;51.416;5.442;2023-09-19T13:58:18;100849.38;;;19.53;100.00
73516;BME280;61763;51.416;5.442;2023-09-19T14:00:46;100845.09;;;19.60;100.00